: Check out the following pages that have been added and/or updated for Howth Tides, Weather Warnings, Sea Area Forecasts, Marine Warnings & Sea Crossings Forecasts.

Ireland METAR reports

 

EIDW - Dublin Airport, Ireland
Distance from station: WNW 13km
Updated: 18/04/2024 20:30
Mostly cloudy
Mostly cloudy
 Wind from W
Wind: W 39 km/h
Temperature: 11°C
Dew Point: 7°C
Humidity: 77%
Barometer: 1019 hPa
Clouds: Mostly cloudy
Visibility: 10 km
Cloud details: Few Clouds 457 m
Mostly cloudy 1067 m
2024/04/18 19:30 EIDW 181930Z 27021KT 9999 FEW015 BKN035 11/07 Q1019 NOSIG
EIME - Casement (mil), Ireland
Distance from station: WSW 26km
Updated: 18/04/2024 20:00
Mostly cloudy
Mostly cloudy
 Wind from W
Wind: W 30 km/h
Temperature: 11°C
Dew Point: 7°C
Humidity: 77%
Barometer: 1020 hPa
Clouds: Mostly cloudy
Visibility: 10 km
Cloud details: Few Clouds 823 m
Mostly cloudy 975 m
2024/04/18 19:00 EIME 181900Z 27016KT 9999 FEW027 BKN032 11/07 Q1020
 
EGAC - Belfast Harbour, United Kingdom
Distance from station: N 140km
Updated: 18/04/2024 20:20
Light rain, Drizzle, Overcast
Light rain, Drizzle, Overcast
 Wind from W
Wind: W 17 km/h
Temperature: 10°C
Wind Chill: 8°C
Dew Point: 9°C
Humidity: 94%
Barometer: 1018 hPa
Summary: Light rain, Drizzle
Clouds: Overcast
Visibility: 10 km
Cloud details: Mostly cloudy 518 m
Overcast 701 m
2024/04/18 19:20 EGAC 181920Z AUTO 26009KT 220V290 9999 -RADZ BKN017 OVC023 10/09 Q1018
EGAA - Belfast/Aldergro, United Kingdom
Distance from station: N 141km
Updated: 18/04/2024 20:20
Overcast
Overcast
 Wind from W
Wind: W 26 km/h
Temperature: 9°C
Wind Chill: 6°C
Dew Point: 8°C
Humidity: 94%
Barometer: 1018 hPa
Clouds: Overcast
Visibility: 10 km
Cloud details: Overcast 274 m
2024/04/18 19:20 EGAA 181920Z AUTO 28014KT 9999 OVC009 09/08 Q1018
 
EIWF - Waterford Arpt, Ireland
Distance from station: SSW 148km
Updated: 18/04/2024 20:30
Clear
Clear
 Wind from NW
Wind: NW 20 km/h
Temperature: 10°C
Wind Chill: 7°C
Dew Point: 6°C
Humidity: 76%
Barometer: 1022 hPa
Summary: Clear
Visibility: greater than 10 km
2024/04/18 19:30 EIWF 181930Z 32011KT 280V350 CAVOK 10/06 Q1022
EIKN - Connaught Apt, Ireland
Distance from station: WNW 191km
Updated: 18/04/2024 19:00
NOT Current
Mostly cloudy
Mostly cloudy
 Wind from WNW
Wind: WNW 22 km/h
Temperature: 9°C
Wind Chill: 6°C
Dew Point: 8°C
Humidity: 94%
Barometer: 1022 hPa
Clouds: Mostly cloudy
Visibility: 10 km
Cloud details: Mostly cloudy 305 m
Mostly cloudy 640 m
2024/04/18 18:00 EIKN 181800Z 30012KT 270V360 9999 BKN010 BKN021 09/08 Q1022 TEMPO BKN006
 
EISG - Sligo Arpt, Ireland
Distance from station: WNW 195km
Updated: 18/04/2024 20:30
Overcast
Overcast
 Wind from W
Wind: W 33 km/h
Temperature: 10°C
Wind Chill: 6°C
Dew Point: 10°C
Humidity: 100%
Barometer: 1021 hPa
Clouds: Overcast
Visibility: 10 km
Cloud details: Overcast 488 m
2024/04/18 19:30 EISG 181930Z 27018KT 9999 OVC016 10/10 Q1021
EGAE - Eglinton/Londond, United Kingdom
Distance from station: NNW 198km
Updated: 18/04/2024 20:20
Light rain, Overcast
Light rain, Overcast
 Wind from WSW
Wind: WSW 19 km/h
Temperature: 10°C
Wind Chill: 7°C
Dew Point: 10°C
Humidity: 100%
Barometer: 1018 hPa
Summary: Light rain
Clouds: Overcast
Visibility: 5 km
Cloud details: Partly cloudy 122 m
Overcast 183 m
2024/04/18 19:20 EGAE 181920Z 25010KT 5000 -RA SCT004 OVC006 10/10 Q1018
 
EINN - Shannon Airport, Ireland
Distance from station: WSW 204km
Updated: 18/04/2024 20:30
Mostly cloudy
Mostly cloudy
 Wind from W
Wind: W 20 km/h
Temperature: 10°C
Wind Chill: 7°C
Dew Point: 7°C
Humidity: 82%
Barometer: 1024 hPa
Clouds: Mostly cloudy
Visibility: 10 km
Cloud details: Few Clouds 518 m
Mostly cloudy 610 m
2024/04/18 19:30 EINN 181930Z 28011KT 250V310 9999 FEW017 BKN020 10/07 Q1024 NOSIG
EICK - Cork Arpt/Corcai, Ireland
Distance from station: SW 234km
Updated: 18/04/2024 20:30
Partly cloudy
Partly cloudy
 Wind from NW
Wind: NW 19 km/h
Temperature: 10°C
Wind Chill: 7°C
Dew Point: 4°C
Humidity: 67%
Barometer: 1024 hPa
Clouds: Partly cloudy
Visibility: 10 km
Cloud details: Partly cloudy 762 m
2024/04/18 19:30 EICK 181930Z 31010KT 9999 SCT025 10/04 Q1024 NOSIG